Terminal Aerodrome Forecast
Issued by NWS

Home | Current Version | Previous Version | Text Only | Print | Product List | Glossary On
Versions: 1 2 3 4 5 6 7 8 9 10 11 12 13 14 15 16 17 18 19 20 21 22
000
FTUS43 KDVN 251734
TAFBRL
TAF
KBRL 251734Z 2518/2618 32007KT 6SM -RA BR BKN040 OVC100
     FM251900 31005KT P6SM VCSH BKN040 OVC100
     FM260000 VRB03KT P6SM BKN070 BKN250
     FM261000 03003KT 6SM BR VCSH OVC040
     FM261500 08006KT 6SM BR BKN040=

USA.gov is the U.S. government's official web portal to all federal, state and local government web resources and services.